createdAt,value
2017-11-15T00:00:34.614Z,90.79
2017-11-15T00:03:00.837Z,90.79
2017-11-15T00:05:27.494Z,90.78
2017-11-15T00:07:53.698Z,90.36
2017-11-15T00:10:19.889Z,90.67
2017-11-15T00:12:46.391Z,90.65
2017-11-15T00:15:12.657Z,90.65
2017-11-15T00:17:38.806Z,91.02
2017-11-15T00:20:05.262Z,90.55
2017-11-15T00:22:36.493Z,90.53
2017-11-15T00:25:13.344Z,90.99
2017-11-15T00:27:39.507Z,91.45
2017-11-15T00:30:05.697Z,91.33
2017-11-15T00:32:31.931Z,91.75
2017-11-15T00:34:58.061Z,91.98
2017-11-15T00:37:24.578Z,92.29
2017-11-15T00:39:50.692Z,92.48
2017-11-15T00:42:16.856Z,91.64
2017-11-15T00:44:43.021Z,90.99
2017-11-15T00:47:09.262Z,90.83
2017-11-15T00:49:35.829Z,90.49
2017-11-15T00:52:02.073Z,90.78
2017-11-15T00:54:28.249Z,90.36
2017-11-15T00:56:54.440Z,90.29
2017-11-15T00:59:20.591Z,90.30
2017-11-15T01:01:47.044Z,89.91
2017-11-15T01:04:13.128Z,90.51
2017-11-15T01:06:39.279Z,90.43
2017-11-15T01:09:05.757Z,90.26
2017-11-15T01:11:32.130Z,89.90
2017-11-15T01:13:58.255Z,90.23
2017-11-15T01:16:24.869Z,90.05
2017-11-15T01:18:50.917Z,89.69
2017-11-15T01:21:17.035Z,89.48
2017-11-15T01:23:43.298Z,89.53
2017-11-15T01:26:09.484Z,90.00
2017-11-15T01:28:36.037Z,90.53
2017-11-15T01:31:02.106Z,90.37
2017-11-15T01:33:28.226Z,90.31
2017-11-15T01:35:54.368Z,89.85
2017-11-15T01:38:20.509Z,89.75
2017-11-15T01:40:46.958Z,89.93
2017-11-15T01:43:13.232Z,89.80
2017-11-15T01:45:39.412Z,90.01
2017-11-15T01:48:05.966Z,89.62
2017-11-15T01:50:32.057Z,90.40
2017-11-15T01:52:58.241Z,89.67
2017-11-15T01:55:35.325Z,90.20
2017-11-15T01:58:01.435Z,90.17
2017-11-15T02:00:40.588Z,89.92
2017-11-15T02:03:06.705Z,90.05
2017-11-15T02:05:32.835Z,89.95
2017-11-15T02:07:58.970Z,89.77
2017-11-15T02:10:25.079Z,89.88
2017-11-15T02:12:51.578Z,90.04
2017-11-15T02:15:17.720Z,90.48
2017-11-15T02:17:43.852Z,90.42
2017-11-15T02:20:09.889Z,90.63
2017-11-15T02:22:36.074Z,90.77
2017-11-15T02:25:02.552Z,90.57
2017-11-15T02:27:28.643Z,90.55
2017-11-15T02:29:55.036Z,90.65
2017-11-15T02:32:21.276Z,90.42
2017-11-15T02:34:47.368Z,90.73
2017-11-15T02:37:13.837Z,90.81
2017-11-15T02:39:39.948Z,90.64
2017-11-15T02:42:06.023Z,90.86
2017-11-15T02:44:32.227Z,91.05
2017-11-15T02:46:58.328Z,90.87
2017-11-15T02:49:24.786Z,90.75
2017-11-15T02:51:50.926Z,90.52
2017-11-15T02:54:17.016Z,90.48
2017-11-15T02:56:43.418Z,90.34
2017-11-15T02:59:09.536Z,90.58
2017-11-15T03:01:35.935Z,91.46
2017-11-15T03:04:02.068Z,90.70
2017-11-15T03:06:28.166Z,90.32
2017-11-15T03:08:54.535Z,90.71
2017-11-15T03:11:20.603Z,90.81
2017-11-15T03:13:46.729Z,90.49
2017-11-15T03:16:12.848Z,91.07
2017-11-15T03:18:39.034Z,91.34
2017-11-15T03:21:11.567Z,90.82
2017-11-15T03:23:37.992Z,90.64
2017-11-15T03:26:04.455Z,90.81
2017-11-15T03:28:30.931Z,90.46
2017-11-15T03:30:57.096Z,90.97
2017-11-15T03:33:23.138Z,90.73
2017-11-15T03:35:49.296Z,90.93
2017-11-15T03:38:15.407Z,90.80
2017-11-15T03:40:41.858Z,91.22
2017-11-15T03:43:08.044Z,90.80
2017-11-15T03:45:34.486Z,91.31
2017-11-15T03:48:00.995Z,91.36
2017-11-15T03:50:27.252Z,91.66
2017-11-15T03:52:53.478Z,91.97
2017-11-15T03:55:19.615Z,91.98
2017-11-15T03:57:45.750Z,91.84
2017-11-15T04:00:12.231Z,91.44
2017-11-15T04:02:38.412Z,91.54
2017-11-15T04:05:04.752Z,91.61
2017-11-15T04:07:30.872Z,91.72
2017-11-15T04:09:57.090Z,92.02
2017-11-15T04:12:23.708Z,92.37
2017-11-15T04:14:49.840Z,91.77
2017-11-15T04:17:16.152Z,91.75
2017-11-15T04:19:42.643Z,91.79
2017-11-15T04:22:08.789Z,91.88
2017-11-15T04:24:34.893Z,92.24
2017-11-15T04:27:01.534Z,92.73
2017-11-15T04:29:27.945Z,92.38
2017-11-15T04:31:54.097Z,92.21
2017-11-15T04:34:20.621Z,92.18
2017-11-15T04:36:46.770Z,91.86
2017-11-15T04:39:12.931Z,92.45
2017-11-15T04:41:39.072Z,92.35
2017-11-15T04:44:05.197Z,92.31
2017-11-15T04:46:31.960Z,92.40
2017-11-15T04:48:58.099Z,92.60
2017-11-15T04:51:24.221Z,93.08
2017-11-15T04:53:50.407Z,92.83
2017-11-15T04:56:16.726Z,92.68
2017-11-15T04:58:43.331Z,91.92
2017-11-15T05:01:09.940Z,92.50
2017-11-15T05:03:36.032Z,92.64
2017-11-15T05:06:03.121Z,92.38
2017-11-15T05:08:29.306Z,92.74
2017-11-15T05:10:55.871Z,93.21
2017-11-15T05:13:22.055Z,93.71
2017-11-15T05:15:48.218Z,93.53
2017-11-15T05:18:18.009Z,93.17
2017-11-15T05:20:44.123Z,94.56
2017-11-15T05:23:10.716Z,93.37
2017-11-15T05:25:36.818Z,93.14
2017-11-15T05:28:02.910Z,93.02
2017-11-15T05:30:29.026Z,92.64
2017-11-15T05:32:55.328Z,93.06
2017-11-15T05:35:21.824Z,92.53
2017-11-15T05:37:48.029Z,92.56
2017-11-15T05:40:14.133Z,92.29
2017-11-15T05:42:40.705Z,92.23
2017-11-15T05:45:06.932Z,92.69
2017-11-15T05:47:33.036Z,92.99
2017-11-15T05:49:59.246Z,93.17
2017-11-15T05:52:25.673Z,93.45
2017-11-15T05:54:52.455Z,93.13
2017-11-15T05:57:18.559Z,92.94
2017-11-15T05:59:44.705Z,92.89
2017-11-15T06:02:10.889Z,92.79
2017-11-15T06:04:37.016Z,93.04
2017-11-15T06:07:03.517Z,93.24
2017-11-15T06:09:29.667Z,93.41
2017-11-15T06:11:55.776Z,93.53
2017-11-15T06:14:21.953Z,93.44
2017-11-15T06:16:48.245Z,93.36
2017-11-15T06:19:14.928Z,93.55
2017-11-15T06:21:40.945Z,93.47
2017-11-15T06:24:07.124Z,93.13
2017-11-15T06:26:33.233Z,92.78
2017-11-15T06:28:59.320Z,92.84
2017-11-15T06:31:25.824Z,93.02
2017-11-15T06:33:51.894Z,93.21
2017-11-15T06:36:18.155Z,94.23
2017-11-15T06:38:44.544Z,93.00
2017-11-15T06:41:12.900Z,93.01
2017-11-15T06:43:39.008Z,92.86
2017-11-15T06:46:05.446Z,92.66
2017-11-15T06:48:31.572Z,92.61
2017-11-15T06:50:58.541Z,92.53
2017-11-15T06:53:24.935Z,92.86
2017-11-15T06:55:51.084Z,92.76
2017-11-15T06:58:17.168Z,92.35
2017-11-15T07:00:43.321Z,92.35
2017-11-15T07:03:09.476Z,91.95
2017-11-15T07:05:35.610Z,92.12
2017-11-15T07:08:01.781Z,92.36
2017-11-15T07:10:28.339Z,92.41
2017-11-15T07:12:54.480Z,92.09
2017-11-15T07:15:20.580Z,92.24
2017-11-15T07:17:46.678Z,92.16
2017-11-15T07:20:12.765Z,92.08
2017-11-15T07:22:38.854Z,91.89
2017-11-15T07:25:05.008Z,92.40
2017-11-15T07:27:31.108Z,91.95
2017-11-15T07:29:57.375Z,91.97
2017-11-15T07:32:23.719Z,91.87
2017-11-15T07:34:49.800Z,92.10
2017-11-15T07:37:16.076Z,92.32
2017-11-15T07:39:42.529Z,92.52
2017-11-15T07:42:08.611Z,92.41
2017-11-15T07:44:34.744Z,91.54
2017-11-15T07:47:00.809Z,91.10
2017-11-15T07:49:27.065Z,91.48
2017-11-15T07:51:53.170Z,91.21
2017-11-15T07:54:19.276Z,91.30
2017-11-15T07:56:45.379Z,91.38
2017-11-15T07:59:11.444Z,90.87
2017-11-15T08:01:37.600Z,91.11
2017-11-15T08:04:04.012Z,91.00
2017-11-15T08:06:30.074Z,90.87
2017-11-15T08:08:56.218Z,91.01
2017-11-15T08:11:22.300Z,90.87
2017-11-15T08:13:48.421Z,91.04
2017-11-15T08:16:14.525Z,90.89
2017-11-15T08:18:40.628Z,90.74
2017-11-15T08:21:06.728Z,90.92
2017-11-15T08:23:32.820Z,90.93
2017-11-15T08:25:58.923Z,91.08
2017-11-15T08:28:25.057Z,90.91
2017-11-15T08:30:51.129Z,90.97
2017-11-15T08:33:17.217Z,90.59
2017-11-15T08:35:43.437Z,91.09
2017-11-15T08:38:09.544Z,91.15
2017-11-15T08:40:35.606Z,90.81
2017-11-15T08:43:01.725Z,90.74
2017-11-15T08:45:27.830Z,90.16
2017-11-15T08:47:53.931Z,90.59
2017-11-15T08:50:20.021Z,90.14
2017-11-15T08:52:46.024Z,89.97
2017-11-15T08:55:12.159Z,89.47
2017-11-15T08:57:38.272Z,89.38
2017-11-15T09:00:04.668Z,88.94
2017-11-15T09:02:31.027Z,89.13
2017-11-15T09:04:57.171Z,88.87
2017-11-15T09:07:23.413Z,89.05
2017-11-15T09:09:49.536Z,89.07
2017-11-15T09:12:15.688Z,89.51
2017-11-15T09:14:42.009Z,89.86
2017-11-15T09:17:08.109Z,89.39
2017-11-15T09:19:34.265Z,88.97
2017-11-15T09:22:00.364Z,89.33
2017-11-15T09:24:26.456Z,88.91
2017-11-15T09:26:52.564Z,89.16
2017-11-15T09:29:18.664Z,88.71
2017-11-15T09:31:44.731Z,88.99
2017-11-15T09:34:11.168Z,88.50
2017-11-15T09:36:37.265Z,89.07
2017-11-15T09:39:03.378Z,88.13
2017-11-15T09:41:29.516Z,87.71
2017-11-15T09:43:55.609Z,88.26
2017-11-15T09:46:21.923Z,87.93
2017-11-15T09:48:48.073Z,87.36
2017-11-15T09:51:14.172Z,87.24
2017-11-15T09:53:40.297Z,87.71
2017-11-15T09:56:06.504Z,87.14
2017-11-15T09:58:32.635Z,87.50
2017-11-15T10:00:58.740Z,87.73
2017-11-15T10:03:24.845Z,87.54
2017-11-15T10:05:51.033Z,87.68
2017-11-15T10:08:17.148Z,87.34
2017-11-15T10:10:43.335Z,87.20
2017-11-15T10:13:09.534Z,87.36
2017-11-15T10:15:35.676Z,87.28
2017-11-15T10:18:01.811Z,86.69
2017-11-15T10:20:27.897Z,87.04
2017-11-15T10:22:54.079Z,87.76
2017-11-15T10:25:20.231Z,87.82
2017-11-15T10:27:46.344Z,87.58
2017-11-15T10:30:12.445Z,87.02
2017-11-15T10:32:38.564Z,86.81
2017-11-15T10:35:04.959Z,86.95
2017-11-15T10:37:31.196Z,86.74
2017-11-15T10:39:57.305Z,86.05
2017-11-15T10:42:23.439Z,85.60
2017-11-15T10:44:49.580Z,85.87
2017-11-15T10:47:15.746Z,85.92
2017-11-15T10:49:41.882Z,86.22
2017-11-15T10:52:07.987Z,87.01
2017-11-15T10:54:34.132Z,86.35
2017-11-15T10:57:00.261Z,86.79
2017-11-15T10:59:26.390Z,85.20
2017-11-15T11:01:52.569Z,84.38
2017-11-15T11:04:18.638Z,84.02
2017-11-15T11:06:44.721Z,84.14
2017-11-15T11:09:10.854Z,83.91
2017-11-15T11:11:36.969Z,84.32
2017-11-15T11:14:03.080Z,84.24
2017-11-15T11:16:29.198Z,84.15
2017-11-15T11:18:55.389Z,84.09
2017-11-15T11:21:21.731Z,83.54
2017-11-15T11:23:47.897Z,83.73
2017-11-15T11:26:14.052Z,83.49
2017-11-15T11:28:40.159Z,83.66
2017-11-15T11:31:06.837Z,83.18
2017-11-15T11:33:32.932Z,83.57
2017-11-15T11:35:59.064Z,83.32
2017-11-15T11:38:25.222Z,83.63
2017-11-15T11:40:51.548Z,83.06
2017-11-15T11:43:17.640Z,83.59
2017-11-15T11:45:43.808Z,83.70
2017-11-15T11:48:10.031Z,83.48
2017-11-15T11:50:36.622Z,82.98
2017-11-15T11:53:02.740Z,82.91
2017-11-15T11:55:29.564Z,82.75
2017-11-15T11:57:55.691Z,82.97
2017-11-15T12:00:21.835Z,83.45
2017-11-15T12:02:48.067Z,83.81
2017-11-15T12:05:14.219Z,83.42
2017-11-15T12:07:40.303Z,82.89
2017-11-15T12:10:06.615Z,82.07
2017-11-15T12:12:32.878Z,83.02
2017-11-15T12:14:59.095Z,83.36
2017-11-15T12:17:25.194Z,82.99
2017-11-15T12:19:51.301Z,82.45
2017-11-15T12:22:17.550Z,82.32
2017-11-15T12:24:43.691Z,81.79
2017-11-15T12:27:09.821Z,81.69
2017-11-15T12:29:35.864Z,81.91
2017-11-15T12:32:02.032Z,83.27
2017-11-15T12:34:28.182Z,83.24
2017-11-15T12:36:54.275Z,82.44
2017-11-15T12:39:20.392Z,83.09
2017-11-15T12:41:46.510Z,83.17
2017-11-15T12:44:12.782Z,83.22
2017-11-15T12:46:38.895Z,83.44
2017-11-15T12:49:05.004Z,83.28
2017-11-15T12:51:31.404Z,83.65
2017-11-15T12:53:57.557Z,83.78
2017-11-15T12:56:23.673Z,82.90
2017-11-15T12:58:49.830Z,83.87
2017-11-15T13:01:15.944Z,84.08
2017-11-15T13:03:42.035Z,83.30
2017-11-15T13:06:08.739Z,83.08
2017-11-15T13:08:35.771Z,83.33
2017-11-15T13:11:01.928Z,82.98
2017-11-15T13:13:28.043Z,83.54
2017-11-15T13:15:54.371Z,83.33
2017-11-15T13:18:20.762Z,82.78
2017-11-15T13:20:46.865Z,82.86
2017-11-15T13:23:13.212Z,83.56
2017-11-15T13:25:39.318Z,83.94
2017-11-15T13:28:05.468Z,84.15
2017-11-15T13:30:31.745Z,84.47
2017-11-15T13:32:57.855Z,83.96
2017-11-15T13:35:23.989Z,84.31
2017-11-15T13:37:50.347Z,84.33
2017-11-15T13:40:16.511Z,84.97
2017-11-15T13:42:42.635Z,84.03
2017-11-15T13:45:09.109Z,83.62
2017-11-15T13:47:35.279Z,83.80
2017-11-15T13:50:01.426Z,84.30
2017-11-15T13:52:27.592Z,83.77
2017-11-15T13:54:53.845Z,84.59
2017-11-15T13:57:20.239Z,84.44
2017-11-15T13:59:46.368Z,84.46
2017-11-15T14:02:12.432Z,83.90
2017-11-15T14:04:38.562Z,84.17
2017-11-15T14:07:04.740Z,83.91
2017-11-15T14:09:30.917Z,83.69
2017-11-15T14:11:57.091Z,83.78
2017-11-15T14:14:23.333Z,84.34
2017-11-15T14:16:49.661Z,83.89
2017-11-15T14:19:15.950Z,84.09
2017-11-15T14:21:42.061Z,84.11
2017-11-15T14:24:08.178Z,84.91
2017-11-15T14:26:34.713Z,84.58
2017-11-15T14:29:00.907Z,84.84
2017-11-15T14:31:27.150Z,85.30
2017-11-15T14:33:53.497Z,85.30
2017-11-15T14:36:19.645Z,85.20
2017-11-15T14:38:45.908Z,85.38
2017-11-15T14:41:12.121Z,84.74
2017-11-15T14:43:38.305Z,85.02
2017-11-15T14:46:04.461Z,85.19
2017-11-15T14:48:30.683Z,85.28
2017-11-15T14:50:56.886Z,85.49
2017-11-15T14:53:23.137Z,85.83
2017-11-15T14:55:49.363Z,86.21
2017-11-15T14:58:15.785Z,85.95
2017-11-15T15:00:42.014Z,85.21
2017-11-15T15:03:08.199Z,85.83
2017-11-15T15:05:34.323Z,85.88
2017-11-15T15:08:00.586Z,85.91
2017-11-15T15:10:26.718Z,85.97
2017-11-15T15:12:53.090Z,86.22
2017-11-15T15:15:19.391Z,86.51
2017-11-15T15:17:45.659Z,86.61
2017-11-15T15:20:11.934Z,87.12
2017-11-15T15:22:38.130Z,86.52
2017-11-15T15:25:04.640Z,86.19
2017-11-15T15:27:30.934Z,86.27
2017-11-15T15:29:57.120Z,86.00
2017-11-15T15:32:23.249Z,86.61
2017-11-15T15:34:49.364Z,86.70
2017-11-15T15:37:15.517Z,87.47
2017-11-15T15:39:41.606Z,86.96
2017-11-15T15:42:07.784Z,87.37
2017-11-15T15:44:33.929Z,86.98
2017-11-15T15:47:00.104Z,86.98
2017-11-15T15:49:26.227Z,87.63
2017-11-15T15:51:52.375Z,88.03
2017-11-15T15:54:18.865Z,87.51
2017-11-15T15:56:45.056Z,87.91
2017-11-15T15:59:11.302Z,87.89
2017-11-15T16:01:37.468Z,87.75
2017-11-15T16:04:03.592Z,88.36
2017-11-15T16:06:29.717Z,88.40
2017-11-15T16:08:55.805Z,88.03
2017-11-15T16:11:22.601Z,88.25
2017-11-15T16:13:48.838Z,88.75
2017-11-15T16:16:15.062Z,89.29
2017-11-15T16:18:41.236Z,88.77
2017-11-15T16:21:07.503Z,89.07
2017-11-15T16:23:34.081Z,88.97
2017-11-15T16:26:00.272Z,88.83
2017-11-15T16:28:26.458Z,88.80
2017-11-15T16:30:52.690Z,88.84
2017-11-15T16:33:18.986Z,89.13
2017-11-15T16:35:45.773Z,89.33
2017-11-15T16:38:12.052Z,89.15
2017-11-15T16:40:38.309Z,89.20
2017-11-15T16:43:04.562Z,89.55
2017-11-15T16:45:30.824Z,89.87
2017-11-15T16:47:57.448Z,89.19
2017-11-15T16:50:23.705Z,89.43
2017-11-15T16:52:50.123Z,89.74
2017-11-15T16:55:16.750Z,90.05
2017-11-15T16:57:42.933Z,90.26
2017-11-15T17:00:09.140Z,90.36
2017-11-15T17:02:35.695Z,89.71
2017-11-15T17:05:01.975Z,90.58
2017-11-15T17:07:28.250Z,89.60
2017-11-15T17:09:54.824Z,90.74
2017-11-15T17:12:21.077Z,90.91
2017-11-15T17:14:47.654Z,90.91
2017-11-15T17:17:13.850Z,90.36
2017-11-15T17:19:40.059Z,90.41
2017-11-15T17:22:06.224Z,90.19
2017-11-15T17:24:32.503Z,90.83
2017-11-15T17:26:59.351Z,90.77
2017-11-15T17:29:26.147Z,90.66
2017-11-15T17:31:52.369Z,90.32
2017-11-15T17:34:18.893Z,90.69
2017-11-15T17:36:45.076Z,90.88
2017-11-15T17:39:11.581Z,91.27
2017-11-15T17:41:37.851Z,91.09
2017-11-15T17:44:04.166Z,90.73
2017-11-15T17:46:30.739Z,91.08
2017-11-15T17:48:56.958Z,91.58
2017-11-15T17:51:23.379Z,91.93
2017-11-15T17:53:49.617Z,91.97
2017-11-15T17:56:15.837Z,92.24
2017-11-15T17:58:42.513Z,92.09
2017-11-15T18:01:09.659Z,91.98
2017-11-15T18:03:35.937Z,92.35
2017-11-15T18:06:02.262Z,92.41
2017-11-15T18:08:28.661Z,92.59
2017-11-15T18:10:55.341Z,92.53
2017-11-15T18:13:21.691Z,92.65
2017-11-15T18:15:48.051Z,93.09
2017-11-15T18:18:14.667Z,93.49
2017-11-15T18:20:40.845Z,93.23
2017-11-15T18:23:07.182Z,93.51
2017-11-15T18:25:34.909Z,93.72
2017-11-15T18:28:01.178Z,93.78
2017-11-15T18:30:27.684Z,93.83
2017-11-15T18:32:53.958Z,94.00
2017-11-15T18:35:20.255Z,93.99
2017-11-15T18:37:47.028Z,93.90
2017-11-15T18:40:13.342Z,93.58
2017-11-15T18:42:39.581Z,93.66
2017-11-15T18:45:06.369Z,93.84
2017-11-15T18:47:32.550Z,94.25
2017-11-15T18:49:58.671Z,94.50
2017-11-15T18:52:24.798Z,94.88
2017-11-15T18:54:50.962Z,94.73
2017-11-15T18:57:17.517Z,94.70
2017-11-15T18:59:43.746Z,94.61
2017-11-15T19:02:10.155Z,94.69
2017-11-15T19:04:36.444Z,94.59
2017-11-15T19:07:02.757Z,94.31
2017-11-15T19:12:25.429Z,94.67
2017-11-15T19:14:52.097Z,95.03
2017-11-15T19:17:18.439Z,94.96
2017-11-15T19:19:45.651Z,95.01
2017-11-15T19:22:11.988Z,95.12
2017-11-15T19:24:38.358Z,95.12
2017-11-15T19:27:06.741Z,94.95
2017-11-15T19:29:33.267Z,94.77
2017-11-15T19:31:59.709Z,94.76
2017-11-15T19:34:26.141Z,94.80
2017-11-15T19:36:52.560Z,94.61
2017-11-15T19:39:19.313Z,94.61
2017-11-15T19:41:45.898Z,94.82
2017-11-15T19:44:12.344Z,94.58
2017-11-15T19:46:49.793Z,94.45
2017-11-15T19:49:16.462Z,94.37
2017-11-15T19:51:43.244Z,94.22
2017-11-15T19:54:09.870Z,93.93
2017-11-15T19:56:38.391Z,93.55
2017-11-15T19:59:05.142Z,93.58
2017-11-15T20:01:31.507Z,93.59
2017-11-15T20:03:57.870Z,93.29
2017-11-15T20:06:24.642Z,93.46
2017-11-15T20:08:51.050Z,93.43
2017-11-15T20:11:17.433Z,93.35
2017-11-15T20:13:43.887Z,93.52
2017-11-15T20:16:10.313Z,93.67
2017-11-15T20:18:37.108Z,93.61
2017-11-15T20:21:03.778Z,93.81
2017-11-15T20:23:30.228Z,93.67
2017-11-15T20:25:56.724Z,93.68
2017-11-15T20:28:23.852Z,93.99
2017-11-15T20:30:50.717Z,94.07
2017-11-15T20:33:17.200Z,93.95
2017-11-15T20:35:43.724Z,93.76
2017-11-15T20:38:14.133Z,94.14
2017-11-15T20:40:41.019Z,94.36
2017-11-15T20:43:07.397Z,94.74
2017-11-15T20:45:33.724Z,94.57
2017-11-15T20:48:00.901Z,94.29
2017-11-15T20:50:27.606Z,94.39
2017-11-15T20:52:53.898Z,94.52
2017-11-15T20:55:20.180Z,94.59
2017-11-15T20:57:46.962Z,94.77
2017-11-15T21:00:13.300Z,94.92
2017-11-15T21:02:39.527Z,94.71
2017-11-15T21:05:06.117Z,94.56
2017-11-15T21:07:32.523Z,94.29
2017-11-15T21:09:58.985Z,94.37
2017-11-15T21:12:25.944Z,94.12
2017-11-15T21:14:52.448Z,94.01
2017-11-15T21:17:18.857Z,93.71
2017-11-15T21:19:45.606Z,93.83
2017-11-15T21:22:12.047Z,93.93
2017-11-15T21:24:38.292Z,93.47
2017-11-15T21:27:04.946Z,93.94
2017-11-15T21:29:31.146Z,94.41
2017-11-15T21:31:57.420Z,95.17
2017-11-15T21:34:24.001Z,95.23
2017-11-15T21:36:50.291Z,94.94
2017-11-15T21:39:16.571Z,95.05
2017-11-15T21:41:43.128Z,95.15
2017-11-15T21:44:09.387Z,94.84
2017-11-15T21:46:35.616Z,94.92
2017-11-15T21:49:02.236Z,94.72
2017-11-15T21:51:28.372Z,94.54
2017-11-15T21:53:54.542Z,94.18
2017-11-15T21:56:21.191Z,93.93
2017-11-15T21:58:47.369Z,93.99
2017-11-15T22:01:13.593Z,94.32
2017-11-15T22:03:40.104Z,94.74
2017-11-15T22:06:06.272Z,95.00
2017-11-15T22:08:32.443Z,95.20
2017-11-15T22:10:58.626Z,94.94
2017-11-15T22:13:24.798Z,94.68
2017-11-15T22:15:51.381Z,94.42
2017-11-15T22:18:17.590Z,94.22
2017-11-15T22:20:43.682Z,94.90
2017-11-15T22:23:09.906Z,95.37
2017-11-15T22:25:35.997Z,95.60
2017-11-15T22:28:02.537Z,95.83
2017-11-15T22:30:28.675Z,96.00
2017-11-15T22:32:54.825Z,96.04
2017-11-15T22:35:21.394Z,96.17
2017-11-15T22:37:47.550Z,96.07
2017-11-15T22:40:13.754Z,95.93
2017-11-15T22:42:39.970Z,96.00
2017-11-15T22:45:06.229Z,96.23
2017-11-15T22:47:32.773Z,96.37
2017-11-15T22:49:58.888Z,96.60
2017-11-15T22:52:25.772Z,96.70
2017-11-15T22:54:51.977Z,96.51
2017-11-15T22:57:18.100Z,96.59
2017-11-15T22:59:44.689Z,96.58
2017-11-15T23:02:10.906Z,95.86
2017-11-15T23:04:37.110Z,95.44
2017-11-15T23:07:03.465Z,95.74
2017-11-15T23:09:29.536Z,94.98
2017-11-15T23:11:56.039Z,95.16
2017-11-15T23:14:22.190Z,95.42
2017-11-15T23:16:48.349Z,95.69
2017-11-15T23:19:14.574Z,95.92
2017-11-15T23:21:40.699Z,95.96
2017-11-15T23:24:07.179Z,95.27
2017-11-15T23:26:33.344Z,94.93
2017-11-15T23:28:59.521Z,94.93
2017-11-15T23:31:25.721Z,95.05
2017-11-15T23:33:51.913Z,95.27
2017-11-15T23:36:18.534Z,95.20
2017-11-15T23:38:45.553Z,95.29
2017-11-15T23:41:11.693Z,95.41
2017-11-15T23:43:37.857Z,94.94
2017-11-15T23:46:04.087Z,95.08
2017-11-15T23:48:30.855Z,95.39
2017-11-15T23:50:57.032Z,95.47
2017-11-15T23:53:23.115Z,95.72
2017-11-15T23:55:49.659Z,96.05
2017-11-15T23:58:15.806Z,96.30
